Time;durP1;ratioP1;P1;durP2;ratioP2;P2;SDS_P1;SDS_P2;PMS_P1;PMS_P2;Temp;Humidity;BMP_temperature;BMP_pressure;BME280_temperature;BME280_humidity;BME280_pressure;Samples;Min_cycle;Max_cycle;Signal;HPM_P1;HPM_P2
2023/02/26 00:03:09;;;;;;;10.48;3.20;;;;;;;0.21;100.00;99839.38;5099008;55;1137025;-68
2023/02/26 00:08:14;;;;;;;17.63;3.63;;;;;;;0.17;100.00;99848.23;5123428;55;1136924;-66
2023/02/26 00:13:21;;;;;;;4.65;1.07;;;;;;;0.14;100.00;99849.70;5122346;55;1136795;-69
2023/02/26 00:18:27;;;;;;;3.30;1.37;;;;;;;0.08;100.00;99856.00;5132378;55;1134760;-68
2023/02/26 00:23:33;;;;;;;8.07;1.90;;;;;;;0.09;100.00;99861.59;5207844;55;1134734;-66
2023/02/26 00:28:39;;;;;;;2.37;1.20;;;;;;;0.07;100.00;99864.72;5188911;55;1134745;-65
2023/02/26 00:33:46;;;;;;;2.73;1.33;;;;;;;0.03;100.00;99871.41;5188863;55;1134620;-66
2023/02/26 00:39:08;;;;;;;3.00;1.30;;;;;;;-0.02;100.00;99874.23;5209119;55;1134732;-67
2023/02/26 00:44:14;;;;;;;2.67;0.93;;;;;;;-0.07;100.00;99881.39;5188634;55;1136673;-65
2023/02/26 00:49:32;;;;;;;5.60;1.00;;;;;;;-0.15;100.00;99886.06;5188333;55;1137018;-67
2023/02/26 00:54:38;;;;;;;2.10;0.97;;;;;;;-0.21;100.00;99899.34;5208453;55;1136587;-69
2023/02/26 00:59:44;;;;;;;6.27;1.23;;;;;;;-0.20;100.00;99901.87;5188178;55;1136955;-67
2023/02/26 01:04:50;;;;;;;1.73;1.20;;;;;;;-0.14;100.00;99915.04;5186154;55;1136795;-67
2023/02/26 01:09:57;;;;;;;5.47;1.73;;;;;;;-0.09;100.00;99917.84;5205237;55;1137078;-67
2023/02/26 01:15:03;;;;;;;6.93;2.10;;;;;;;-0.08;100.00;99916.93;5185896;55;1136706;-66
2023/02/26 01:20:22;;;;;;;1.42;1.20;;;;;;;-0.07;100.00;99920.38;5143459;55;1136917;-67
2023/02/26 01:25:39;;;;;;;2.00;1.10;;;;;;;-0.08;100.00;99929.92;5174378;55;1136725;-69
2023/02/26 01:30:46;;;;;;;0.83;0.83;;;;;;;-0.05;100.00;99940.20;5186362;55;1136908;-67
2023/02/26 01:36:05;;;;;;;0.90;0.90;;;;;;;-0.07;100.00;99945.91;5188391;55;1136662;-69
2023/02/26 01:41:27;;;;;;;0.97;0.60;;;;;;;-0.12;100.00;99948.30;5189182;55;1136756;-66
2023/02/26 01:47:01;;;;;;;0.83;0.70;;;;;;;-0.21;100.00;99949.56;5207177;55;1136687;-67
2023/02/26 01:52:25;;;;;;;;;;;;;;;-0.27;100.00;99955.45;5137677;56;1136893;-68
2023/02/26 01:57:31;;;;;;;7.57;1.50;;;;;;;-0.32;100.00;99966.52;5181900;55;974108;-67
2023/02/26 02:02:38;;;;;;;1.90;0.70;;;;;;;-0.37;100.00;99970.59;5208602;55;1134637;-69
2023/02/26 02:07:45;;;;;;;2.33;1.00;;;;;;;-0.46;100.00;99973.11;5184763;55;1136916;-68
2023/02/26 02:13:20;;;;;;;2.10;0.97;;;;;;;-0.44;100.00;99984.73;5154848;55;1136858;-66
2023/02/26 02:18:55;;;;;;;1.83;0.83;;;;;;;-0.47;100.00;99990.93;5147397;55;1136902;-68
2023/02/26 02:24:11;;;;;;;5.07;1.20;;;;;;;-0.46;100.00;99991.77;5119945;55;1136788;-69
2023/02/26 02:30:11;;;;;;;1.85;0.98;;;;;;;-0.53;100.00;99997.66;5170012;55;1136800;-66
2023/02/26 02:35:20;;;;;;;2.53;1.07;;;;;;;-0.58;100.00;100009.97;5185802;55;1136912;-67
2023/02/26 02:40:31;;;;;;;3.42;1.10;;;;;;;-0.58;100.00;100024.26;5093228;54;1138944;-68
2023/02/26 02:45:47;;;;;;;1.70;1.00;;;;;;;-0.63;100.00;100024.06;5119960;55;1138730;-65
2023/02/26 02:51:16;;;;;;;1.62;0.78;;;;;;;-0.65;100.00;100037.56;5098991;55;1138834;-68
2023/02/26 02:56:27;;;;;;;1.67;1.03;;;;;;;-0.66;100.00;100044.50;5099343;56;1138682;-67
2023/02/26 03:01:36;;;;;;;4.60;0.90;;;;;;;-0.72;100.00;100059.86;5098572;56;1138707;-67
2023/02/26 03:06:45;;;;;;;3.63;1.60;;;;;;;-0.70;100.00;100066.30;5119177;56;1139037;-66
2023/02/26 03:11:50;;;;;;;0.97;0.77;;;;;;;-0.67;100.00;100064.88;5098851;56;1138915;-67
2023/02/26 03:17:04;;;;;;;1.80;0.70;;;;;;;-0.70;100.00;100076.69;5067254;56;1138942;-66
2023/02/26 03:22:36;;;;;;;1.67;0.72;;;;;;;-0.71;100.00;100087.52;5101380;55;1139156;-68
2023/02/26 03:28:03;;;;;;;0.60;0.57;;;;;;;-0.74;100.00;100104.51;5170375;55;1138935;-68
2023/02/26 03:33:17;;;;;;;1.57;1.20;;;;;;;-0.79;100.00;100107.75;5156758;55;1138866;-65
2023/02/26 03:38:30;;;;;;;2.37;0.88;;;;;;;-0.78;100.00;100120.28;5119621;56;1138821;-67
2023/02/26 03:43:58;;;;;;;5.05;1.20;;;;;;;-0.80;100.00;100121.64;5140411;56;1139158;-66
2023/02/26 03:49:09;;;;;;;3.23;1.17;;;;;;;-0.74;100.00;100140.02;5009298;56;1138967;-67
2023/02/26 03:54:25;;;;;;;2.70;1.12;;;;;;;-0.74;100.00;100140.02;4970726;57;1139009;-67
2023/02/26 03:59:34;;;;;;;2.27;0.77;;;;;;;-0.74;100.00;100146.05;5013132;57;1138917;-69
2023/02/26 04:05:00;;;;;;;2.33;0.82;;;;;;;-0.78;100.00;100152.28;5016477;56;1138699;-66
2023/02/26 04:10:09;;;;;;;13.67;3.07;;;;;;;-0.79;100.00;100162.27;5018452;56;1138880;-65
2023/02/26 04:15:16;;;;;;;6.72;2.20;;;;;;;-0.79;100.00;100166.17;5018079;56;1140958;-68
2023/02/26 04:20:22;;;;;;;2.52;1.47;;;;;;;-0.76;100.00;100172.52;5097248;55;1139200;-67
2023/02/26 04:25:28;;;;;;;4.42;1.05;;;;;;;-0.78;100.00;100174.80;5156951;55;1138850;-65
2023/02/26 04:30:34;;;;;;;7.77;1.43;;;;;;;-0.80;100.00;100190.44;5156932;56;1139001;-66
2023/02/26 04:35:40;;;;;;;3.73;1.40;;;;;;;-0.80;100.00;100197.38;5177409;55;1138937;-65
2023/02/26 04:40:48;;;;;;;2.90;1.17;;;;;;;-0.79;100.00;100202.97;5156928;55;1138732;-65
2023/02/26 04:45:54;;;;;;;2.90;1.10;;;;;;;-0.79;100.00;100198.62;5156892;55;1138748;-67
2023/02/26 04:51:01;;;;;;;1.03;0.50;;;;;;;-0.79;100.00;100203.81;5157110;55;1139050;-66
2023/02/26 04:56:07;;;;;;;7.15;1.60;;;;;;;-0.75;100.00;100204.52;5177019;55;1139235;-68
2023/02/26 05:01:14;;;;;;;3.20;1.20;;;;;;;-0.71;100.00;100224.30;5157136;55;1148402;-65
2023/02/26 05:06:20;;;;;;;1.80;1.55;;;;;;;-0.73;100.00;100224.34;5157121;55;1138875;-66
2023/02/26 05:11:26;;;;;;;10.37;6.27;;;;;;;-0.71;100.00;100229.03;5177187;55;1138865;-66
2023/02/26 05:16:32;;;;;;;3.20;2.10;;;;;;;-0.65;100.00;100240.11;5156526;55;1140909;-68
2023/02/26 05:21:38;;;;;;;4.33;2.30;;;;;;;-0.62;100.00;100243.45;5141708;55;1139048;-67
2023/02/26 05:26:43;;;;;;;1.37;1.27;;;;;;;-0.64;100.00;100251.75;5101536;55;1138847;-65
2023/02/26 05:31:49;;;;;;;7.83;3.13;;;;;;;-0.64;100.00;100256.09;5071427;55;1138937;-68
2023/02/26 05:36:55;;;;;;;5.27;2.73;;;;;;;-0.61;100.00;100263.30;5071185;56;1138832;-67
2023/02/26 05:42:01;;;;;;;4.03;2.57;;;;;;;-0.56;100.00;100270.94;5093185;56;1138825;-67
2023/02/26 05:47:07;;;;;;;4.53;1.80;;;;;;;-0.52;100.00;100285.52;5117025;55;1138878;-65
2023/02/26 05:52:13;;;;;;;1.70;1.20;;;;;;;-0.52;100.00;100292.86;5034650;56;1138821;-68
2023/02/26 05:57:18;;;;;;;2.72;1.62;;;;;;;-0.50;100.00;100296.25;5017515;55;1148090;-66
2023/02/26 06:02:25;;;;;;;7.55;1.62;;;;;;;-0.48;100.00;100311.34;5037347;56;1138900;-65
2023/02/26 06:07:31;;;;;;;4.60;1.27;;;;;;;-0.43;100.00;100315.05;5043029;55;1138810;-65
2023/02/26 06:12:38;;;;;;;1.67;1.00;;;;;;;-0.38;100.00;100324.83;5101097;56;1138686;-68
2023/02/26 06:17:44;;;;;;;5.77;2.70;;;;;;;-0.32;100.00;100336.77;5107368;56;1139080;-67
2023/02/26 06:22:50;;;;;;;4.40;2.17;;;;;;;-0.30;100.00;100344.88;5055330;55;1138699;-68
2023/02/26 06:27:56;;;;;;;6.53;1.70;;;;;;;-0.30;100.00;100355.27;5101509;56;1138911;-65
2023/02/26 06:33:02;;;;;;;5.20;3.03;;;;;;;-0.25;100.00;100369.41;5035662;56;1139016;-64
2023/02/26 06:38:08;;;;;;;6.87;2.40;;;;;;;-0.24;100.00;100373.26;5037047;56;1138750;-65
2023/02/26 06:43:14;;;;;;;3.75;2.00;;;;;;;-0.22;100.00;100390.95;4998734;56;1139048;-67
2023/02/26 06:48:20;;;;;;;7.97;3.25;;;;;;;-0.24;100.00;100389.30;4971824;56;1138859;-69
2023/02/26 06:53:26;;;;;;;2.30;2.00;;;;;;;-0.24;100.00;100399.70;5056309;56;1138713;-65
2023/02/26 06:58:33;;;;;;;2.73;1.80;;;;;;;-0.20;100.00;100406.04;5037353;56;1138652;-67
2023/02/26 07:03:39;;;;;;;5.27;1.73;;;;;;;-0.16;100.00;100416.73;5032155;56;1138899;-66
2023/02/26 07:08:45;;;;;;;3.70;1.67;;;;;;;-0.11;100.00;100416.09;5039293;55;1138916;-65
2023/02/26 07:13:53;;;;;;;4.83;2.20;;;;;;;-0.07;100.00;100424.19;5037235;56;1138987;-68
2023/02/26 07:18:59;;;;;;;13.17;4.57;;;;;;;0.02;100.00;100436.45;5024707;56;1138852;-68
2023/02/26 07:24:06;;;;;;;9.63;3.25;;;;;;;0.08;100.00;100449.25;5035653;56;1138880;-69
2023/02/26 07:29:12;;;;;;;3.13;1.70;;;;;;;0.10;100.00;100453.49;5040286;56;1208902;-67
2023/02/26 07:34:18;;;;;;;1.95;1.35;;;;;;;0.11;100.00;100459.09;5074523;56;1141428;-68
2023/02/26 07:39:24;;;;;;;8.40;3.85;;;;;;;0.17;100.00;100468.41;5017049;57;1136729;-68
2023/02/26 07:44:31;;;;;;;10.45;2.85;;;;;;;0.28;100.00;100472.34;5040402;57;1136837;-66
2023/02/26 07:49:37;;;;;;;12.27;3.33;;;;;;;0.39;100.00;100486.70;5041151;55;1138910;-66
2023/02/26 07:54:43;;;;;;;20.37;5.53;;;;;;;0.44;100.00;100499.95;5083579;55;1138793;-66
2023/02/26 07:59:50;;;;;;;12.93;4.47;;;;;;;0.51;100.00;100504.46;5093113;56;1138718;-68
2023/02/26 08:04:56;;;;;;;17.10;4.63;;;;;;;0.57;100.00;100519.41;5099723;56;1138722;-65
2023/02/26 08:10:01;;;;;;;29.73;9.37;;;;;;;0.61;100.00;100527.48;5095400;56;1138881;-67
2023/02/26 08:15:08;;;;;;;17.37;6.23;;;;;;;0.66;100.00;100533.38;5135846;55;1138756;-68
2023/02/26 08:20:15;;;;;;;6.97;2.30;;;;;;;0.68;100.00;100545.03;5119358;55;1138845;-68
2023/02/26 08:25:21;;;;;;;9.63;3.33;;;;;;;0.72;100.00;100557.04;5068086;55;1137821;-66
2023/02/26 08:30:27;;;;;;;5.67;2.10;;;;;;;0.73;100.00;100567.00;5101777;56;1137017;-67
2023/02/26 08:35:33;;;;;;;6.07;2.50;;;;;;;0.77;100.00;100566.81;5121727;56;1136702;-67
2023/02/26 08:40:38;;;;;;;12.80;5.73;;;;;;;0.81;100.00;100572.77;5101716;56;1136853;-66
2023/02/26 08:45:45;;;;;;;15.50;4.40;;;;;;;0.85;100.00;100584.31;5101396;56;1138830;-65
2023/02/26 08:50:50;;;;;;;11.93;4.20;;;;;;;0.87;100.00;100594.67;5121613;56;1138922;-65
2023/02/26 08:55:56;;;;;;;19.02;6.92;;;;;;;0.92;100.00;100603.14;5101652;56;1138865;-66
2023/02/26 09:01:02;;;;;;;24.50;7.33;;;;;;;0.93;100.00;100617.41;5101517;56;1138827;-65
2023/02/26 09:06:08;;;;;;;21.57;6.33;;;;;;;0.99;100.00;100626.32;5102247;56;1138921;-73
2023/02/26 09:11:13;;;;;;;8.20;2.63;;;;;;;1.13;100.00;100626.26;5121184;56;1138914;-73
2023/02/26 09:16:19;;;;;;;17.17;4.70;;;;;;;1.46;100.00;100635.88;5084856;55;1144965;-73
2023/02/26 09:21:25;;;;;;;10.90;3.77;;;;;;;1.80;100.00;100639.33;5067699;56;1138895;-79
2023/02/26 09:26:30;;;;;;;14.50;4.08;;;;;;;2.10;100.00;100649.83;5117070;55;1139072;-70
2023/02/26 09:31:36;;;;;;;7.97;3.33;;;;;;;2.26;100.00;100658.73;5057016;56;1139010;-72
2023/02/26 09:36:43;;;;;;;13.03;4.12;;;;;;;2.36;100.00;100674.84;5016280;55;1136761;-74
2023/02/26 09:41:54;;;;;;;5.37;2.60;;;;;;;2.46;100.00;100678.77;5034890;57;1138851;-73
2023/02/26 09:47:25;;;;;;;9.17;3.10;;;;;;;2.46;100.00;100693.97;5015568;56;1136537;-70
2023/02/26 09:52:36;;;;;;;9.08;4.15;;;;;;;2.44;100.00;100705.41;5016468;56;1136711;-74
2023/02/26 09:57:46;;;;;;;9.80;2.77;;;;;;;2.54;100.00;100705.88;5088618;56;1136712;-79
2023/02/26 10:03:18;;;;;;;13.87;3.93;;;;;;;2.66;100.00;100723.62;5111230;56;1136797;-74
2023/02/26 10:08:28;;;;;;;11.40;3.40;;;;;;;2.61;100.00;100734.25;5086875;55;1138793;-71
2023/02/26 10:13:53;;;;;;;13.83;4.95;;;;;;;2.54;100.00;100738.05;5037594;55;1138883;-71
2023/02/26 10:19:03;;;;;;;9.23;2.50;;;;;;;2.68;100.00;100742.24;5048651;55;1138821;-70
2023/02/26 10:24:19;;;;;;;5.37;2.30;;;;;;;2.90;100.00;100753.11;5095771;55;1136647;-77
2023/02/26 10:29:35;;;;;;;6.70;2.20;;;;;;;3.00;100.00;100758.33;5099413;56;1136979;-74
2023/02/26 10:35:07;;;;;;;4.53;1.45;;;;;;;3.15;100.00;100772.05;5119084;56;1136788;-70
2023/02/26 10:40:48;;;;;;;10.67;2.60;;;;;;;3.21;100.00;100772.25;5099205;56;1136712;-75
2023/02/26 10:46:37;;;;;;;5.67;2.57;;;;;;;3.31;100.00;100771.77;5103862;55;1138860;-67
2023/02/26 10:51:45;;;;;;;15.93;5.10;;;;;;;3.49;100.00;100784.05;5105221;55;1136818;-69
2023/02/26 10:56:51;;;;;;;8.27;4.00;;;;;;;3.39;100.00;100794.95;5082469;55;1139040;-71
2023/02/26 11:01:57;;;;;;;9.23;4.40;;;;;;;3.31;100.00;100807.52;5065392;56;1136737;-77
2023/02/26 11:07:05;;;;;;;16.03;4.70;;;;;;;3.23;100.00;100806.52;5090868;56;1136868;-73
2023/02/26 11:12:16;;;;;;;11.53;4.17;;;;;;;3.26;100.00;100805.55;5094788;56;1138852;-73
2023/02/26 11:17:31;;;;;;;7.37;2.87;;;;;;;3.30;100.00;100811.05;5110388;55;1138775;-72
2023/02/26 11:22:37;;;;;;;15.47;4.43;;;;;;;3.27;100.00;100817.70;5089876;56;1136723;-72
2023/02/26 11:27:46;;;;;;;3.80;2.17;;;;;;;3.20;100.00;100824.98;5042329;56;1138985;-75
2023/02/26 11:32:56;;;;;;;7.47;2.33;;;;;;;3.01;100.00;100831.88;5070212;56;1136758;-71
2023/02/26 11:38:04;;;;;;;8.97;3.93;;;;;;;2.97;100.00;100832.91;5071366;55;1136651;-74
2023/02/26 11:43:14;;;;;;;10.60;4.80;;;;;;;2.87;100.00;100848.13;5136986;56;1136883;-72
2023/02/26 11:48:27;;;;;;;16.60;4.33;;;;;;;2.80;100.00;100855.80;5080902;56;1141182;-75
2023/02/26 11:53:37;;;;;;;12.55;5.10;;;;;;;2.65;100.00;100856.41;5155808;55;1139056;-85
2023/02/26 11:58:46;;;;;;;18.40;6.13;;;;;;;2.58;100.00;100861.49;5132293;55;1139010;-77
2023/02/26 12:03:52;;;;;;;13.73;6.07;;;;;;;2.64;100.00;100867.76;5176346;56;1138811;-64
2023/02/26 12:08:59;;;;;;;14.47;6.63;;;;;;;2.74;100.00;100865.20;5156141;55;1138832;-74
2023/02/26 12:14:20;;;;;;;8.70;5.00;;;;;;;2.88;100.00;100873.78;5156093;55;1138783;-75
2023/02/26 12:20:21;;;;;;;10.33;3.20;;;;;;;3.08;100.00;100877.27;5105775;56;1136736;-77
2023/02/26 12:26:00;;;;;;;20.68;5.97;;;;;;;3.16;100.00;100883.51;5071298;56;1138787;-78
2023/02/26 12:31:31;;;;;;;39.25;19.37;;;;;;;3.18;100.00;100887.77;5070894;56;1139151;-75
2023/02/26 12:37:05;;;;;;;13.98;4.92;;;;;;;3.22;100.00;100892.38;4998120;56;1140972;-76
2023/02/26 12:42:23;;;;;;;9.40;3.03;;;;;;;3.23;100.00;100898.00;5092001;56;1138849;-74
2023/02/26 12:47:36;;;;;;;162.35;75.17;;;;;;;3.22;100.00;100901.98;5084052;55;1136937;-77
2023/02/26 12:53:01;;;;;;;178.40;94.70;;;;;;;3.20;100.00;100906.45;5141556;55;1143039;-78
2023/02/26 12:58:30;;;;;;;12.50;6.27;;;;;;;3.25;100.00;100915.78;5121157;55;1142978;-74
2023/02/26 13:04:01;;;;;;;7.00;2.83;;;;;;;3.22;100.00;100929.42;5044403;56;1139027;-79
2023/02/26 13:09:14;;;;;;;3.27;1.70;;;;;;;3.15;100.00;100936.23;5115720;55;1136861;-77
2023/02/26 13:14:43;;;;;;;;;;;;;;;3.07;100.00;100937.44;5139626;55;1136741;-76
2023/02/26 13:20:03;;;;;;;10.03;4.20;;;;;;;3.00;100.00;100951.21;5087988;56;974130;-75
2023/02/26 13:25:26;;;;;;;9.15;2.75;;;;;;;2.96;100.00;100964.45;5037121;57;1136966;-75
2023/02/26 13:30:39;;;;;;;13.67;5.10;;;;;;;2.94;100.00;100967.57;5037278;57;1136823;-76
2023/02/26 13:35:45;;;;;;;;;;;;;;;2.92;100.00;100970.69;5059562;57;1138869;-75
2023/02/26 13:41:06;;;;;;;13.53;6.00;;;;;;;2.91;100.00;100972.45;5055446;57;973992;-78
2023/02/26 13:46:42;;;;;;;12.27;3.37;;;;;;;2.93;100.00;100973.70;5058586;56;1136761;-77
2023/02/26 13:51:49;;;;;;;22.45;9.05;;;;;;;2.98;100.00;100977.00;5125714;56;1138783;-75
2023/02/26 13:57:11;;;;;;;12.20;6.93;;;;;;;3.03;100.00;100975.07;5146111;56;1138859;-77
2023/02/26 14:02:31;;;;;;;8.97;3.50;;;;;;;3.01;100.00;100984.27;5126282;56;1138879;-79
2023/02/26 14:08:22;;;;;;;7.92;3.42;;;;;;;3.04;100.00;100995.92;5123224;56;1136760;-75
2023/02/26 14:13:41;;;;;;;3.03;2.07;;;;;;;3.04;100.00;100997.67;5042046;56;1136831;-75
2023/02/26 14:18:53;;;;;;;20.37;9.43;;;;;;;3.02;100.00;100999.04;5061480;56;1136755;-77
2023/02/26 14:24:21;;;;;;;19.30;8.60;;;;;;;2.98;100.00;101000.52;5070064;56;1139130;-77
2023/02/26 14:29:37;;;;;;;17.05;7.80;;;;;;;2.96;100.00;101007.10;5125508;56;1138892;-78
2023/02/26 14:34:50;;;;;;;17.93;7.10;;;;;;;2.94;100.00;101012.84;5122862;56;1139001;-80
2023/02/26 14:40:19;;;;;;;178.53;90.37;;;;;;;2.93;100.00;101021.58;5146087;56;1139150;-78
2023/02/26 14:45:32;;;;;;;32.27;15.57;;;;;;;2.95;100.00;101020.22;5110921;56;1152758;-75
2023/02/26 14:51:03;;;;;;;35.37;14.73;;;;;;;3.04;100.00;101022.50;5097401;56;1140740;-80
2023/02/26 14:56:13;;;;;;;32.40;19.23;;;;;;;3.10;100.00;101023.09;5096958;56;1140829;-74
2023/02/26 15:01:38;;;;;;;16.57;6.17;;;;;;;3.11;100.00;101024.80;5112857;56;1140751;-76
2023/02/26 15:07:05;;;;;;;9.70;4.70;;;;;;;3.12;100.00;101034.34;5037458;56;1139025;-77
2023/02/26 15:12:37;;;;;;;16.37;6.83;;;;;;;3.09;100.00;101034.46;5013241;57;1136836;-80
2023/02/26 15:17:56;;;;;;;23.33;8.53;;;;;;;3.18;100.00;101038.50;5012719;57;1138814;-74
2023/02/26 15:23:24;;;;;;;8.70;3.80;;;;;;;3.24;100.00;101048.70;5065437;56;1138798;-78
2023/02/26 15:28:42;;;;;;;14.00;6.27;;;;;;;3.21;100.00;101054.52;5112890;56;1146451;-79
2023/02/26 15:33:52;;;;;;;10.63;5.43;;;;;;;3.11;100.00;101057.92;5050042;56;1138915;-79
2023/02/26 15:39:02;;;;;;;9.30;4.37;;;;;;;3.02;100.00;101063.06;5014298;56;1138730;-69
2023/02/26 15:44:12;;;;;;;29.63;11.68;;;;;;;2.96;100.00;101069.81;5065995;56;1136765;-72
2023/02/26 15:49:44;;;;;;;16.47;9.17;;;;;;;2.89;100.00;101077.49;5023894;56;1140971;-67
2023/02/26 15:55:05;;;;;;;16.83;9.17;;;;;;;2.83;100.00;101078.56;5044728;56;1138832;-70
2023/02/26 16:00:26;;;;;;;10.37;5.17;;;;;;;2.76;100.00;101090.13;5016031;56;1138744;-68
2023/02/26 16:05:32;;;;;;;13.93;4.90;;;;;;;2.74;100.00;101095.88;5024543;56;1138829;-73
2023/02/26 16:10:41;;;;;;;21.75;9.28;;;;;;;2.71;100.00;101095.13;5068864;55;1138739;-72
2023/02/26 16:15:48;;;;;;;8.07;3.43;;;;;;;2.61;100.00;101106.34;5017618;55;1138947;-66
2023/02/26 16:20:57;;;;;;;11.30;4.90;;;;;;;2.54;100.00;101114.46;5055770;55;1136828;-71
2023/02/26 16:26:06;;;;;;;9.00;3.43;;;;;;;2.47;100.00;101114.66;5067000;55;1138971;-74
2023/02/26 16:31:27;;;;;;;11.27;5.83;;;;;;;2.47;100.00;101125.55;5119921;55;1136674;-72
2023/02/26 16:36:40;;;;;;;13.18;5.55;;;;;;;2.42;100.00;101129.66;5147152;55;1138702;-72
2023/02/26 16:41:50;;;;;;;11.13;5.17;;;;;;;2.35;100.00;101147.72;5021359;56;1138675;-71
2023/02/26 16:46:57;;;;;;;32.20;13.93;;;;;;;2.33;100.00;101157.80;5090974;55;1138729;-70
2023/02/26 16:52:05;;;;;;;66.20;29.43;;;;;;;2.31;100.00;101166.98;5086133;56;1140869;-74
2023/02/26 16:57:37;;;;;;;42.35;21.55;;;;;;;2.30;100.00;101175.72;5093538;56;1141070;-69
2023/02/26 17:02:46;;;;;;;25.30;8.73;;;;;;;2.31;100.00;101186.56;4969808;57;1140856;-69
2023/02/26 17:08:15;;;;;;;68.63;29.67;;;;;;;2.31;100.00;101187.87;5001998;55;1139025;-76
2023/02/26 17:13:31;;;;;;;191.30;89.73;;;;;;;2.26;100.00;101188.49;5131541;55;1140774;-65
2023/02/26 17:18:37;;;;;;;245.63;116.77;;;;;;;2.19;100.00;101203.08;5128957;55;1142934;-66
2023/02/26 17:23:45;;;;;;;36.67;19.23;;;;;;;2.14;100.00;101205.83;5159959;55;1145008;-68
2023/02/26 17:28:51;;;;;;;25.60;13.80;;;;;;;2.03;100.00;101202.26;5123704;55;1140929;-71
2023/02/26 17:33:56;;;;;;;25.97;15.67;;;;;;;2.00;100.00;101211.48;5167247;55;1140969;-75
2023/02/26 17:39:02;;;;;;;48.53;22.10;;;;;;;1.95;100.00;101210.79;5186328;55;1141011;-69
2023/02/26 17:44:08;;;;;;;28.10;14.00;;;;;;;1.96;100.00;101222.94;5206213;55;1140986;-71
2023/02/26 17:49:14;;;;;;;57.00;28.00;;;;;;;1.95;100.00;101229.05;5185629;55;1140909;-67
2023/02/26 17:54:21;;;;;;;135.30;80.87;;;;;;;1.88;100.00;101236.64;5185945;55;1140903;-72
2023/02/26 17:59:27;;;;;;;126.57;78.43;;;;;;;1.92;100.00;101232.20;5206370;55;1143368;-69
2023/02/26 18:04:33;;;;;;;40.10;29.00;;;;;;;1.96;100.00;101254.23;5185419;55;1144448;-66
2023/02/26 18:09:39;;;;;;;67.12;41.60;;;;;;;1.97;100.00;101249.42;5186113;55;1140775;-67
2023/02/26 18:14:45;;;;;;;66.67;32.93;;;;;;;1.93;100.00;101250.86;5206308;55;1140802;-69
2023/02/26 18:19:51;;;;;;;84.13;41.60;;;;;;;1.92;100.00;101253.06;5121609;55;1140897;-65
2023/02/26 18:24:57;;;;;;;71.10;27.27;;;;;;;1.92;100.00;101264.35;5144560;55;1140862;-67
2023/02/26 18:30:03;;;;;;;45.60;18.15;;;;;;;1.93;100.00;101265.20;5185765;55;1140835;-67
2023/02/26 18:35:09;;;;;;;39.33;15.93;;;;;;;1.95;100.00;101275.15;5171314;55;1140872;-75
2023/02/26 18:40:20;;;;;;;48.60;21.12;;;;;;;1.92;100.00;101272.17;5184590;55;1140891;-71
2023/02/26 18:45:26;;;;;;;49.70;22.70;;;;;;;1.93;100.00;101275.19;5065782;55;1140797;-73
2023/02/26 18:50:32;;;;;;;46.20;18.25;;;;;;;1.88;100.00;101281.44;5128447;55;1140911;-73
2023/02/26 18:55:38;;;;;;;22.52;10.98;;;;;;;1.88;100.00;101284.05;5099245;56;1140812;-76
2023/02/26 19:00:44;;;;;;;15.90;5.93;;;;;;;1.82;100.00;101295.98;5040044;55;1140794;-80
2023/02/26 19:06:12;;;;;;;15.27;6.00;;;;;;;1.80;100.00;101302.98;5142283;55;1138916;-80
2023/02/26 19:11:13;;;;;;;34.10;18.55;;;;;;;1.76;100.00;101305.67;5083082;55;1138708;-78
2023/02/26 19:16:21;;;;;;;20.53;9.03;;;;;;;1.66;100.00;101311.20;5038500;56;1140761;-75
2023/02/26 19:21:27;;;;;;;43.13;22.80;;;;;;;1.54;100.00;101314.13;5017561;57;1138848;-78
2023/02/26 19:26:35;;;;;;;49.02;26.10;;;;;;;1.44;100.00;101318.75;5076460;55;1141015;-78
2023/02/26 19:31:41;;;;;;;36.30;18.80;;;;;;;1.40;100.00;101330.16;5081076;55;1140898;-73
2023/02/26 19:36:48;;;;;;;46.27;26.83;;;;;;;1.36;100.00;101332.01;5093426;55;1140802;-78
2023/02/26 19:41:55;;;;;;;34.87;19.67;;;;;;;1.39;100.00;101343.62;5066874;55;1141168;-78
2023/02/26 19:47:01;;;;;;;22.77;12.27;;;;;;;1.42;100.00;101342.70;5080441;55;1141137;-77
2023/02/26 19:52:07;;;;;;;15.43;5.60;;;;;;;1.44;100.00;101349.17;5072050;55;1140915;-71
2023/02/26 19:57:13;;;;;;;15.63;5.57;;;;;;;1.41;100.00;101357.48;5128278;55;1138823;-75
2023/02/26 20:02:19;;;;;;;16.93;7.87;;;;;;;1.38;100.00;101361.91;5072220;56;1138842;-76
2023/02/26 20:07:25;;;;;;;8.53;3.83;;;;;;;1.32;100.00;101375.12;5049678;55;1138739;-76
2023/02/26 20:12:31;;;;;;;12.37;7.27;;;;;;;1.32;100.00;101375.12;5080066;55;1136715;-80
2023/02/26 20:17:38;;;;;;;21.82;13.50;;;;;;;1.31;100.00;101375.56;5073040;55;1138729;-76
2023/02/26 20:22:44;;;;;;;17.02;6.08;;;;;;;1.27;100.00;101382.19;5082378;55;1140807;-77
2023/02/26 20:27:50;;;;;;;12.83;5.70;;;;;;;1.25;100.00;101382.67;5097968;55;1138691;-74
2023/02/26 20:32:56;;;;;;;23.07;10.83;;;;;;;1.18;100.00;101382.44;5087191;55;1138731;-74
2023/02/26 20:38:01;;;;;;;13.97;5.80;;;;;;;1.19;100.00;101393.27;5054197;55;1140836;-78
2023/02/26 20:43:08;;;;;;;23.25;7.78;;;;;;;1.20;100.00;101402.35;5067857;55;1138888;-79
2023/02/26 20:48:13;;;;;;;26.87;10.98;;;;;;;1.17;100.00;101406.33;5080743;55;1138730;-77
2023/02/26 20:53:21;;;;;;;17.90;7.63;;;;;;;1.12;100.00;101405.58;5081005;55;1140792;-77
2023/02/26 20:58:27;;;;;;;23.93;11.67;;;;;;;1.12;100.00;101414.69;5099527;55;1138723;-78
2023/02/26 21:03:33;;;;;;;28.47;12.10;;;;;;;1.12;100.00;101415.99;5059499;56;1140881;-79
2023/02/26 21:08:39;;;;;;;24.93;12.23;;;;;;;1.08;100.00;101414.34;5091674;55;1140851;-76
2023/02/26 21:13:45;;;;;;;20.05;5.97;;;;;;;1.05;100.00;101420.96;4980504;56;1140972;-77
2023/02/26 21:18:51;;;;;;;35.53;17.43;;;;;;;1.05;100.00;101423.56;5087343;56;1138901;-77
2023/02/26 21:23:57;;;;;;;48.77;18.13;;;;;;;1.02;100.00;101429.70;5099278;55;1140876;-77
2023/02/26 21:29:03;;;;;;;23.67;9.27;;;;;;;1.03;100.00;101435.77;5099115;56;1140929;-80
2023/02/26 21:34:09;;;;;;;16.90;6.87;;;;;;;1.05;100.00;101441.80;5099631;56;1138891;-77
2023/02/26 21:39:16;;;;;;;23.53;8.10;;;;;;;1.02;100.00;101447.93;5119585;56;1138735;-78
2023/02/26 21:44:22;;;;;;;31.47;7.43;;;;;;;1.02;100.00;101457.05;5099380;56;1138686;-76
2023/02/26 21:49:30;;;;;;;14.97;4.07;;;;;;;1.00;100.00;101465.34;5099329;56;1138715;-75
2023/02/26 21:54:36;;;;;;;13.60;5.30;;;;;;;0.99;100.00;101465.38;5119837;56;1138724;-77
2023/02/26 21:59:42;;;;;;;36.23;10.25;;;;;;;0.96;100.00;101465.44;5100732;56;1138754;-78
2023/02/26 22:04:48;;;;;;;34.65;9.28;;;;;;;0.98;100.00;101472.33;5049041;56;1140876;-77
2023/02/26 22:09:55;;;;;;;10.33;4.60;;;;;;;0.99;100.00;101469.28;5048406;56;1138828;-77
2023/02/26 22:15:00;;;;;;;15.90;4.50;;;;;;;0.96;100.00;101470.20;5101759;56;1138727;-78
2023/02/26 22:20:08;;;;;;;14.23;4.43;;;;;;;0.93;100.00;101472.02;5128580;55;1138755;-80
2023/02/26 22:25:14;;;;;;;9.90;3.70;;;;;;;0.95;100.00;101475.44;5125150;55;1138721;-76
2023/02/26 22:30:20;;;;;;;10.10;4.47;;;;;;;0.91;100.00;101479.03;5122252;55;1136758;-76
2023/02/26 22:35:26;;;;;;;16.77;5.63;;;;;;;0.89;100.00;101486.88;5101782;56;1138948;-75
2023/02/26 22:40:32;;;;;;;19.57;8.43;;;;;;;0.84;100.00;101488.72;5082135;56;1138888;-76
2023/02/26 22:45:37;;;;;;;25.65;9.73;;;;;;;0.79;100.00;101487.09;5122184;56;1138872;-77
2023/02/26 22:50:43;;;;;;;26.80;10.57;;;;;;;0.76;100.00;101498.45;5102174;56;1138776;-77
2023/02/26 22:55:49;;;;;;;37.43;12.97;;;;;;;0.79;100.00;101494.45;5074784;56;1140888;-78
2023/02/26 23:01:03;;;;;;;38.05;12.33;;;;;;;0.84;100.00;101496.97;5120073;56;1140914;-78
2023/02/26 23:06:10;;;;;;;15.73;5.90;;;;;;;0.81;100.00;101494.42;5098945;56;1141043;-79
2023/02/26 23:11:15;;;;;;;18.82;8.55;;;;;;;0.70;100.00;101503.78;5068683;56;1138842;-80
2023/02/26 23:16:21;;;;;;;26.20;10.33;;;;;;;0.54;100.00;101513.66;5119443;56;1138767;-77
2023/02/26 23:21:27;;;;;;;28.97;9.60;;;;;;;0.41;100.00;101519.14;5048714;55;1140805;-79